createdAt,value
2018-03-02T00:01:17.181Z,82.23
2018-03-02T00:03:44.743Z,82.25
2018-03-02T00:06:12.385Z,82.26
2018-03-02T00:08:40.011Z,82.28
2018-03-02T00:11:07.678Z,82.41
2018-03-02T00:13:35.242Z,83.13
2018-03-02T00:16:02.864Z,82.99
2018-03-02T00:18:30.539Z,82.81
2018-03-02T00:20:58.110Z,83.00
2018-03-02T00:23:25.783Z,83.02
2018-03-02T00:25:53.358Z,83.43
2018-03-02T00:28:20.940Z,83.45
2018-03-02T00:30:48.642Z,83.21
2018-03-02T00:33:16.273Z,82.92
2018-03-02T00:35:43.957Z,82.92
2018-03-02T00:38:11.544Z,82.91
2018-03-02T00:40:39.117Z,83.07
2018-03-02T00:43:06.695Z,83.35
2018-03-02T00:45:34.345Z,82.92
2018-03-02T00:48:02.032Z,82.82
2018-03-02T00:50:29.662Z,82.77
2018-03-02T00:52:57.246Z,82.60
2018-03-02T00:55:24.904Z,82.44
2018-03-02T00:57:52.493Z,82.09
2018-03-02T01:00:20.067Z,82.08
2018-03-02T01:02:47.647Z,81.99
2018-03-02T01:05:15.218Z,82.00
2018-03-02T01:07:42.901Z,81.50
2018-03-02T01:10:10.503Z,81.74
2018-03-02T01:12:38.158Z,82.11
2018-03-02T01:15:05.731Z,81.52
2018-03-02T01:17:33.377Z,81.90
2018-03-02T01:20:00.996Z,81.90
2018-03-02T01:22:28.606Z,81.95
2018-03-02T01:24:56.242Z,82.11
2018-03-02T01:27:23.881Z,82.06
2018-03-02T01:29:51.567Z,82.15
2018-03-02T01:32:19.222Z,82.49
2018-03-02T01:34:46.915Z,82.61
2018-03-02T01:37:14.515Z,82.40
2018-03-02T01:39:42.133Z,82.56
2018-03-02T01:42:09.915Z,82.88
2018-03-02T01:44:37.537Z,82.85
2018-03-02T01:47:05.165Z,82.98
2018-03-02T01:49:32.790Z,83.43
2018-03-02T01:52:00.351Z,83.56
2018-03-02T01:54:27.992Z,83.46
2018-03-02T01:56:55.652Z,83.37
2018-03-02T01:59:23.230Z,83.24
2018-03-02T02:01:50.814Z,83.23
2018-03-02T02:04:18.414Z,83.06
2018-03-02T02:06:46.015Z,83.10
2018-03-02T02:09:13.582Z,82.90
2018-03-02T02:11:41.173Z,83.30
2018-03-02T02:14:08.782Z,83.30
2018-03-02T02:16:36.410Z,83.19
2018-03-02T02:19:04.034Z,82.85
2018-03-02T02:21:31.625Z,83.06
2018-03-02T02:23:59.248Z,82.86
2018-03-02T02:26:26.875Z,82.88
2018-03-02T02:28:54.494Z,82.96
2018-03-02T02:31:22.067Z,82.93
2018-03-02T02:33:49.684Z,82.82
2018-03-02T02:36:17.331Z,82.66
2018-03-02T02:38:44.990Z,82.70
2018-03-02T02:41:12.571Z,82.78
2018-03-02T02:43:40.202Z,82.95
2018-03-02T02:46:07.891Z,83.31
2018-03-02T02:48:35.458Z,83.29
2018-03-02T02:51:03.043Z,83.01
2018-03-02T02:53:30.665Z,83.13
2018-03-02T02:55:58.242Z,83.37
2018-03-02T02:58:25.845Z,83.83
2018-03-02T03:00:54.255Z,83.91
2018-03-02T03:03:21.891Z,83.67
2018-03-02T03:05:49.526Z,83.51
2018-03-02T03:08:17.102Z,83.71
2018-03-02T03:10:44.761Z,83.78
2018-03-02T03:13:12.371Z,84.12
2018-03-02T03:15:39.959Z,84.01
2018-03-02T03:18:07.547Z,83.90
2018-03-02T03:20:35.142Z,84.04
2018-03-02T03:23:02.828Z,83.82
2018-03-02T03:25:30.379Z,83.60
2018-03-02T03:27:58.002Z,83.42
2018-03-02T03:30:25.659Z,83.41
2018-03-02T03:32:53.266Z,83.53
2018-03-02T03:35:20.916Z,83.65
2018-03-02T03:37:48.496Z,83.41
2018-03-02T03:40:16.230Z,83.36
2018-03-02T03:42:43.870Z,83.16
2018-03-02T03:45:11.452Z,83.00
2018-03-02T03:47:39.089Z,83.07
2018-03-02T03:50:06.738Z,82.59
2018-03-02T03:52:34.351Z,82.48
2018-03-02T03:55:01.995Z,82.32
2018-03-02T03:57:29.627Z,82.16
2018-03-02T03:59:57.249Z,81.74
2018-03-02T04:02:24.851Z,82.17
2018-03-02T04:04:52.431Z,82.12
2018-03-02T04:07:20.060Z,82.17
2018-03-02T04:09:47.635Z,82.03
2018-03-02T04:12:15.200Z,82.14
2018-03-02T04:14:42.848Z,82.16
2018-03-02T04:17:10.480Z,82.32
2018-03-02T04:19:38.211Z,82.49
2018-03-02T04:22:05.773Z,82.33
2018-03-02T04:24:33.399Z,82.62
2018-03-02T04:27:00.975Z,82.32
2018-03-02T04:29:28.543Z,82.16
2018-03-02T04:31:56.135Z,81.99
2018-03-02T04:34:23.854Z,81.53
2018-03-02T04:36:51.588Z,82.14
2018-03-02T04:39:19.272Z,82.22
2018-03-02T04:41:46.854Z,82.34
2018-03-02T04:44:14.430Z,82.60
2018-03-02T04:46:41.999Z,82.33
2018-03-02T04:49:09.570Z,81.92
2018-03-02T04:51:37.255Z,82.19
2018-03-02T04:54:04.978Z,82.29
2018-03-02T04:56:32.615Z,82.13
2018-03-02T04:59:00.378Z,81.80
2018-03-02T05:01:28.026Z,81.94
2018-03-02T05:03:55.723Z,81.90
2018-03-02T05:06:23.324Z,81.69
2018-03-02T05:08:50.894Z,81.43
2018-03-02T05:11:18.529Z,81.09
2018-03-02T05:13:46.093Z,80.72
2018-03-02T05:16:13.694Z,80.54
2018-03-02T05:18:41.291Z,80.63
2018-03-02T05:21:08.936Z,80.50
2018-03-02T05:23:36.506Z,80.41
2018-03-02T05:26:04.074Z,80.36
2018-03-02T05:28:31.650Z,80.22
2018-03-02T05:30:59.286Z,79.81
2018-03-02T05:33:26.875Z,79.23
2018-03-02T05:35:54.499Z,79.02
2018-03-02T05:38:22.071Z,78.84
2018-03-02T05:40:49.704Z,78.62
2018-03-02T05:43:17.336Z,78.32
2018-03-02T05:45:44.954Z,78.23
2018-03-02T05:48:12.535Z,77.84
2018-03-02T05:50:40.208Z,76.91
2018-03-02T05:53:07.836Z,77.23
2018-03-02T05:55:35.475Z,77.35
2018-03-02T05:58:03.067Z,77.43
2018-03-02T06:00:30.721Z,76.75
2018-03-02T06:02:58.303Z,76.80
2018-03-02T06:05:25.951Z,77.22
2018-03-02T06:07:53.638Z,76.88
2018-03-02T06:10:21.234Z,76.86
2018-03-02T06:12:48.803Z,76.36
2018-03-02T06:15:16.379Z,75.95
2018-03-02T06:17:43.950Z,75.25
2018-03-02T06:20:11.535Z,75.49
2018-03-02T06:22:39.227Z,75.02
2018-03-02T06:25:06.855Z,74.74
2018-03-02T06:27:34.462Z,74.93
2018-03-02T06:30:02.039Z,73.89
2018-03-02T06:32:29.626Z,73.60
2018-03-02T06:34:57.201Z,74.15
2018-03-02T06:37:24.783Z,72.96
2018-03-02T06:39:52.425Z,73.32
2018-03-02T06:42:20.068Z,72.15
2018-03-02T06:44:47.738Z,72.42
2018-03-02T06:47:15.498Z,72.27
2018-03-02T06:49:43.068Z,72.55
2018-03-02T06:52:10.687Z,72.39
2018-03-02T06:54:38.410Z,71.92
2018-03-02T06:57:06.100Z,70.38
2018-03-02T06:59:33.746Z,70.00
2018-03-02T07:02:01.314Z,71.06
2018-03-02T07:04:28.942Z,70.81
2018-03-02T07:06:56.646Z,70.00
2018-03-02T07:09:24.282Z,71.57
2018-03-02T07:11:51.861Z,71.55
2018-03-02T07:14:19.516Z,71.23
2018-03-02T07:16:47.164Z,71.35
2018-03-02T07:19:14.872Z,71.00
2018-03-02T07:21:42.563Z,70.09
2018-03-02T07:24:10.137Z,69.12
2018-03-02T07:29:12.799Z,67.64
2018-03-02T07:31:40.435Z,66.94
2018-03-02T07:34:08.009Z,66.42
2018-03-02T07:36:35.594Z,66.72
2018-03-02T07:39:03.207Z,64.86
2018-03-02T07:41:30.788Z,64.95
2018-03-02T07:43:58.518Z,64.74
2018-03-02T07:46:26.102Z,64.22
2018-03-02T07:48:53.779Z,63.54
2018-03-02T07:51:21.349Z,62.90
2018-03-02T07:53:48.953Z,63.38
2018-03-02T07:56:16.530Z,63.73
2018-03-02T07:58:44.179Z,61.97
2018-03-02T08:01:11.895Z,61.63
2018-03-02T08:03:39.517Z,61.81
2018-03-02T08:06:07.159Z,62.50
2018-03-02T08:08:34.731Z,60.75
2018-03-02T08:11:02.354Z,60.54
2018-03-02T08:13:30.048Z,59.57
2018-03-02T08:15:57.693Z,59.45
2018-03-02T08:18:25.306Z,59.34
2018-03-02T08:20:52.900Z,59.64
2018-03-02T08:23:20.651Z,57.66
2018-03-02T08:25:48.298Z,56.22
2018-03-02T08:28:15.902Z,57.23
2018-03-02T08:30:43.567Z,55.06
2018-03-02T08:33:11.143Z,54.59
2018-03-02T08:35:38.739Z,53.78
2018-03-02T08:38:06.317Z,53.16
2018-03-02T08:40:33.971Z,52.57
2018-03-02T08:43:01.663Z,52.49
2018-03-02T08:45:29.318Z,53.61
2018-03-02T08:47:56.991Z,53.70
2018-03-02T08:50:24.652Z,53.08
2018-03-02T08:52:52.242Z,52.47
2018-03-02T08:55:20.581Z,53.64
2018-03-02T08:57:48.297Z,53.87
2018-03-02T09:00:15.961Z,53.35
2018-03-02T09:02:43.586Z,54.41
2018-03-02T09:05:11.179Z,53.97
2018-03-02T09:07:38.802Z,53.52
2018-03-02T09:10:06.403Z,52.39
2018-03-02T09:12:34.122Z,53.40
2018-03-02T09:15:01.770Z,53.18
2018-03-02T09:17:29.375Z,52.23
2018-03-02T09:19:56.949Z,51.40
2018-03-02T09:22:24.580Z,51.39
2018-03-02T09:24:52.171Z,53.37
2018-03-02T09:27:19.799Z,53.53
2018-03-02T09:29:47.386Z,53.08
2018-03-02T09:32:15.027Z,52.36
2018-03-02T09:34:42.666Z,53.27
2018-03-02T09:37:10.339Z,52.29
2018-03-02T09:39:37.916Z,52.84
2018-03-02T09:42:05.526Z,52.47
2018-03-02T09:44:33.116Z,52.61
2018-03-02T09:47:00.775Z,53.46
2018-03-02T09:49:28.447Z,53.45
2018-03-02T09:51:56.026Z,53.06
2018-03-02T09:54:23.770Z,53.74
2018-03-02T09:56:51.344Z,52.76
2018-03-02T09:59:18.961Z,50.91
2018-03-02T10:01:46.590Z,50.22
2018-03-02T10:04:14.145Z,50.03
2018-03-02T10:06:41.775Z,49.01
2018-03-02T10:09:09.375Z,48.85
2018-03-02T10:11:37.597Z,49.03
2018-03-02T10:14:05.186Z,48.12
2018-03-02T10:16:32.805Z,49.83
2018-03-02T10:19:00.629Z,51.34
2018-03-02T10:21:28.186Z,53.51
2018-03-02T10:23:55.758Z,52.47
2018-03-02T10:26:23.336Z,53.14
2018-03-02T10:28:50.947Z,53.97
2018-03-02T10:31:18.594Z,52.38
2018-03-02T10:33:46.206Z,52.49
2018-03-02T10:36:13.778Z,52.12
2018-03-02T10:38:41.408Z,53.09
2018-03-02T10:41:08.979Z,53.68
2018-03-02T10:43:36.607Z,53.82
2018-03-02T10:46:04.174Z,55.39
2018-03-02T10:48:31.791Z,55.57
2018-03-02T10:50:59.474Z,57.27
2018-03-02T10:53:27.070Z,57.22
2018-03-02T10:55:54.633Z,58.39
2018-03-02T10:58:22.277Z,57.75
2018-03-02T11:00:51.807Z,57.20
2018-03-02T11:03:23.256Z,57.66
2018-03-02T11:05:50.852Z,59.12
2018-03-02T11:08:18.493Z,59.71
2018-03-02T11:10:46.093Z,59.58
2018-03-02T11:13:13.708Z,59.96
2018-03-02T11:15:41.314Z,60.38
2018-03-02T11:18:08.915Z,60.94
2018-03-02T11:20:36.486Z,61.46
2018-03-02T11:23:04.109Z,61.15
2018-03-02T11:25:31.766Z,61.64
2018-03-02T11:27:59.354Z,62.88
2018-03-02T11:30:26.977Z,64.33
2018-03-02T11:32:54.638Z,63.60
2018-03-02T11:35:22.206Z,64.17
2018-03-02T11:37:49.818Z,65.73
2018-03-02T11:40:17.470Z,65.32
2018-03-02T11:42:45.099Z,65.56
2018-03-02T11:45:12.722Z,65.87
2018-03-02T11:47:40.757Z,66.52
2018-03-02T11:50:08.322Z,67.45
2018-03-02T11:52:35.903Z,67.37
2018-03-02T11:55:03.478Z,67.58
2018-03-02T11:57:31.072Z,68.25
2018-03-02T11:59:58.688Z,67.30
2018-03-02T12:02:26.593Z,67.12
2018-03-02T12:04:54.186Z,66.87
2018-03-02T12:07:21.760Z,66.82
2018-03-02T12:09:49.337Z,66.01
2018-03-02T12:12:16.983Z,66.06
2018-03-02T12:14:44.662Z,67.14
2018-03-02T12:17:12.304Z,68.19
2018-03-02T12:19:39.873Z,67.07
2018-03-02T12:22:07.688Z,66.82
2018-03-02T12:24:35.274Z,67.21
2018-03-02T12:27:02.974Z,67.18
2018-03-02T12:29:30.580Z,68.64
2018-03-02T12:31:58.219Z,68.41
2018-03-02T12:34:25.848Z,68.85
2018-03-02T12:36:53.484Z,68.30
2018-03-02T12:39:21.055Z,68.52
2018-03-02T12:41:48.678Z,68.54
2018-03-02T12:44:16.376Z,68.55
2018-03-02T12:46:43.943Z,69.33
2018-03-02T12:49:11.564Z,69.67
2018-03-02T12:51:39.183Z,70.08
2018-03-02T12:54:06.746Z,68.78
2018-03-02T12:56:35.193Z,71.62
2018-03-02T12:59:02.817Z,69.96
2018-03-02T13:01:30.547Z,71.97
2018-03-02T13:03:58.214Z,70.69
2018-03-02T13:06:25.840Z,70.33
2018-03-02T13:08:53.426Z,71.41
2018-03-02T13:11:21.005Z,71.16
2018-03-02T13:13:48.679Z,71.62
2018-03-02T13:16:16.348Z,71.76
2018-03-02T13:18:43.922Z,71.68
2018-03-02T13:21:11.489Z,70.74
2018-03-02T13:23:39.110Z,70.31
2018-03-02T13:26:06.728Z,69.62
2018-03-02T13:28:46.063Z,69.95
2018-03-02T13:31:13.682Z,69.25
2018-03-02T13:33:53.277Z,70.35
2018-03-02T13:36:20.959Z,70.84
2018-03-02T13:38:48.548Z,70.90
2018-03-02T13:41:27.922Z,70.97
2018-03-02T13:43:55.486Z,71.00
2018-03-02T13:46:23.119Z,70.38
2018-03-02T13:49:02.487Z,70.09
2018-03-02T13:51:30.179Z,70.20
2018-03-02T13:53:57.842Z,71.42
2018-03-02T13:56:37.134Z,71.25
2018-03-02T13:59:04.751Z,70.97
2018-03-02T14:01:32.315Z,72.00
2018-03-02T14:04:11.771Z,72.50
2018-03-02T14:06:39.350Z,73.32
2018-03-02T14:09:06.938Z,72.52
2018-03-02T14:11:34.549Z,74.35
2018-03-02T14:14:02.201Z,73.93
2018-03-02T14:16:29.797Z,74.29
2018-03-02T14:18:57.430Z,74.18
2018-03-02T14:21:25.026Z,74.31
2018-03-02T14:23:52.651Z,73.70
2018-03-02T14:26:20.327Z,73.36
2018-03-02T14:28:47.983Z,74.28
2018-03-02T14:31:15.567Z,74.25
2018-03-02T14:33:43.211Z,74.62
2018-03-02T14:36:10.830Z,75.23
2018-03-02T14:38:38.412Z,75.83
2018-03-02T14:41:06.019Z,76.71
2018-03-02T14:43:33.706Z,76.85
2018-03-02T14:46:01.306Z,77.91
2018-03-02T14:48:28.946Z,77.49
2018-03-02T14:50:56.595Z,77.63
2018-03-02T14:53:24.166Z,78.90
2018-03-02T14:55:52.494Z,79.50
2018-03-02T14:58:20.214Z,80.16
2018-03-02T15:00:47.824Z,80.45
2018-03-02T15:03:15.438Z,80.74
2018-03-02T15:05:43.154Z,80.36
2018-03-02T15:08:10.714Z,80.67
2018-03-02T15:10:38.356Z,81.37
2018-03-02T15:13:05.931Z,81.15
2018-03-02T15:15:33.524Z,81.19
2018-03-02T15:18:01.200Z,81.08
2018-03-02T15:20:28.899Z,81.32
2018-03-02T15:22:56.695Z,81.38
2018-03-02T15:25:24.342Z,81.34
2018-03-02T15:27:51.974Z,81.64
2018-03-02T15:30:19.555Z,82.26
2018-03-02T15:32:47.121Z,82.92
2018-03-02T15:35:14.788Z,83.31
2018-03-02T15:37:42.438Z,83.43
2018-03-02T15:40:10.243Z,84.09
2018-03-02T15:42:37.891Z,84.13
2018-03-02T15:45:05.458Z,84.33
2018-03-02T15:47:33.030Z,84.72
2018-03-02T15:50:00.591Z,85.25
2018-03-02T15:52:28.171Z,85.38
2018-03-02T15:54:55.747Z,84.90
2018-03-02T15:57:23.322Z,84.72
2018-03-02T15:59:50.932Z,84.29
2018-03-02T16:02:18.605Z,83.92
2018-03-02T16:04:46.168Z,84.05
2018-03-02T16:07:13.749Z,84.78
2018-03-02T16:09:41.442Z,84.54
2018-03-02T16:12:09.018Z,84.35
2018-03-02T16:14:36.658Z,84.84
2018-03-02T16:17:04.267Z,84.91
2018-03-02T16:19:32.040Z,85.17
2018-03-02T16:21:59.681Z,85.79
2018-03-02T16:24:27.262Z,86.08
2018-03-02T16:26:54.840Z,86.09
2018-03-02T16:29:22.433Z,85.41
2018-03-02T16:31:50.076Z,84.81
2018-03-02T16:34:17.745Z,84.66
2018-03-02T16:36:45.381Z,84.18
2018-03-02T16:39:13.025Z,84.21
2018-03-02T16:41:40.594Z,84.86
2018-03-02T16:44:08.170Z,84.83
2018-03-02T16:46:35.741Z,85.08
2018-03-02T16:49:03.392Z,84.72
2018-03-02T16:51:30.966Z,85.10
2018-03-02T16:53:58.537Z,85.40
2018-03-02T16:56:26.245Z,85.51
2018-03-02T16:58:53.850Z,86.01
2018-03-02T17:01:21.499Z,86.14
2018-03-02T17:03:49.071Z,86.35
2018-03-02T17:06:16.741Z,86.82
2018-03-02T17:08:44.377Z,86.58
2018-03-02T17:11:11.975Z,86.68
2018-03-02T17:13:39.601Z,86.78
2018-03-02T17:16:07.236Z,86.74
2018-03-02T17:18:34.827Z,86.33
2018-03-02T17:21:02.400Z,86.00
2018-03-02T17:23:30.104Z,85.56
2018-03-02T17:25:57.668Z,85.43
2018-03-02T17:28:25.391Z,85.61
2018-03-02T17:30:52.966Z,85.39
2018-03-02T17:33:20.699Z,85.58
2018-03-02T17:35:48.281Z,85.91
2018-03-02T17:38:15.912Z,85.33
2018-03-02T17:40:43.490Z,85.42
2018-03-02T17:43:11.113Z,85.84
2018-03-02T17:45:38.887Z,85.46
2018-03-02T17:48:06.456Z,85.23
2018-03-02T17:50:34.035Z,85.55
2018-03-02T17:53:01.723Z,85.98
2018-03-02T17:55:29.400Z,86.01
2018-03-02T17:57:56.992Z,86.38
2018-03-02T18:00:24.576Z,86.28
2018-03-02T18:02:52.177Z,86.32
2018-03-02T18:05:19.852Z,86.60
2018-03-02T18:07:47.428Z,86.75
2018-03-02T18:10:15.008Z,86.82
2018-03-02T18:12:42.737Z,86.86
2018-03-02T18:15:10.418Z,87.06
2018-03-02T18:17:37.990Z,87.36
2018-03-02T18:20:05.570Z,87.23
2018-03-02T18:22:33.535Z,86.92
2018-03-02T18:25:01.122Z,86.89
2018-03-02T18:27:28.783Z,86.76
2018-03-02T18:29:56.494Z,86.68
2018-03-02T18:32:24.140Z,86.99
2018-03-02T18:34:51.810Z,87.09
2018-03-02T18:37:19.386Z,86.88
2018-03-02T18:39:46.956Z,86.57
2018-03-02T18:42:14.668Z,86.66
2018-03-02T18:44:42.300Z,86.93
2018-03-02T18:47:09.957Z,86.73
2018-03-02T18:49:37.554Z,86.91
2018-03-02T18:52:05.202Z,87.04
2018-03-02T18:54:32.828Z,86.59
2018-03-02T18:57:00.489Z,86.59
2018-03-02T18:59:28.232Z,86.58
2018-03-02T19:01:55.803Z,86.69
2018-03-02T19:04:23.380Z,86.56
2018-03-02T19:06:51.018Z,86.69
2018-03-02T19:09:18.662Z,86.49
2018-03-02T19:11:46.306Z,86.52
2018-03-02T19:14:13.932Z,86.62
2018-03-02T19:16:41.560Z,86.71
2018-03-02T19:19:09.219Z,86.96
2018-03-02T19:21:36.869Z,86.70
2018-03-02T19:24:04.449Z,86.30
2018-03-02T19:26:32.133Z,86.61
2018-03-02T19:28:59.684Z,86.93
2018-03-02T19:31:27.325Z,87.14
2018-03-02T19:33:54.910Z,87.20
2018-03-02T19:36:22.624Z,87.12
2018-03-02T19:38:50.259Z,86.92
2018-03-02T19:41:17.901Z,86.88
2018-03-02T19:43:45.603Z,87.04
2018-03-02T19:46:13.231Z,87.04
2018-03-02T19:48:40.902Z,87.12
2018-03-02T19:51:08.480Z,86.93
2018-03-02T19:53:36.046Z,87.14
2018-03-02T19:56:03.682Z,87.05
2018-03-02T19:58:31.276Z,86.98
2018-03-02T20:00:58.913Z,87.05
2018-03-02T20:03:26.549Z,87.17
2018-03-02T20:05:54.223Z,86.82
2018-03-02T20:08:21.857Z,87.06
2018-03-02T20:10:49.527Z,86.99
2018-03-02T20:13:17.104Z,87.19
2018-03-02T20:15:44.743Z,87.15
2018-03-02T20:18:12.419Z,87.04
2018-03-02T20:20:40.085Z,87.12
2018-03-02T20:23:07.797Z,87.42
2018-03-02T20:25:35.434Z,87.48
2018-03-02T20:28:03.085Z,87.39
2018-03-02T20:30:30.806Z,87.11
2018-03-02T20:32:58.486Z,87.26
2018-03-02T20:35:26.086Z,86.93
2018-03-02T20:37:53.748Z,87.17
2018-03-02T20:40:21.421Z,87.29
2018-03-02T20:42:48.988Z,87.00
2018-03-02T20:45:16.590Z,87.20
2018-03-02T20:47:44.168Z,87.42
2018-03-02T20:50:11.734Z,87.33
2018-03-02T20:52:39.395Z,87.41
2018-03-02T20:55:07.044Z,87.17
2018-03-02T20:57:34.676Z,86.89
2018-03-02T21:00:02.254Z,87.11
2018-03-02T21:02:30.015Z,87.28
2018-03-02T21:04:57.624Z,87.16
2018-03-02T21:07:25.188Z,87.40
2018-03-02T21:09:52.815Z,87.31
2018-03-02T21:12:20.430Z,87.44
2018-03-02T21:14:48.069Z,87.75
2018-03-02T21:17:15.639Z,87.77
2018-03-02T21:19:43.278Z,87.71
2018-03-02T21:22:10.981Z,87.78
2018-03-02T21:24:38.607Z,87.70
2018-03-02T21:27:06.234Z,87.82
2018-03-02T21:29:33.946Z,87.62
2018-03-02T21:32:01.619Z,87.64
2018-03-02T21:34:29.205Z,87.74
2018-03-02T21:36:56.830Z,87.90
2018-03-02T21:39:24.414Z,87.82
2018-03-02T21:41:52.028Z,87.74
2018-03-02T21:44:19.603Z,87.66
2018-03-02T21:46:47.287Z,87.70
2018-03-02T21:49:14.894Z,87.43
2018-03-02T21:51:42.654Z,87.38
2018-03-02T21:54:10.303Z,87.74
2018-03-02T21:56:37.930Z,87.84
2018-03-02T21:59:05.582Z,87.40
2018-03-02T22:01:33.243Z,87.55
2018-03-02T22:04:00.824Z,87.35
2018-03-02T22:06:28.461Z,87.46
2018-03-02T22:08:56.028Z,87.70
2018-03-02T22:11:23.606Z,88.40
2018-03-02T22:13:51.183Z,88.80
2018-03-02T22:16:18.864Z,88.95
2018-03-02T22:18:46.440Z,88.73
2018-03-02T22:21:14.079Z,88.66
2018-03-02T22:23:41.655Z,88.68
2018-03-02T22:26:09.234Z,88.70
2018-03-02T22:28:36.817Z,88.62
2018-03-02T22:31:04.426Z,88.61
2018-03-02T22:33:32.137Z,88.67
2018-03-02T22:35:59.723Z,88.68
2018-03-02T22:38:27.355Z,88.61
2018-03-02T22:40:55.032Z,88.55
2018-03-02T22:43:22.597Z,88.81
2018-03-02T22:45:50.196Z,87.81
2018-03-02T22:48:17.824Z,87.65
2018-03-02T22:50:45.464Z,87.69
2018-03-02T22:53:13.054Z,87.82
2018-03-02T22:55:40.731Z,87.48
2018-03-02T22:58:08.439Z,86.97
2018-03-02T23:00:36.099Z,87.14
2018-03-02T23:03:03.719Z,86.83
2018-03-02T23:05:31.291Z,86.67
2018-03-02T23:07:59.110Z,87.02
2018-03-02T23:10:26.683Z,86.91
2018-03-02T23:12:54.414Z,86.95
2018-03-02T23:15:22.018Z,87.06
2018-03-02T23:17:50.394Z,86.91
2018-03-02T23:20:17.983Z,86.86
2018-03-02T23:22:45.871Z,87.04
2018-03-02T23:25:13.559Z,87.28
2018-03-02T23:27:41.132Z,87.42
2018-03-02T23:30:08.824Z,87.62
2018-03-02T23:32:36.474Z,87.66
2018-03-02T23:35:04.191Z,87.76
2018-03-02T23:37:31.798Z,87.62
2018-03-02T23:39:59.522Z,87.68
2018-03-02T23:42:27.122Z,87.58
2018-03-02T23:44:54.701Z,87.75
2018-03-02T23:47:22.407Z,87.98
2018-03-02T23:49:50.064Z,88.23
2018-03-02T23:52:17.698Z,88.35
2018-03-02T23:54:45.310Z,88.48
2018-03-02T23:57:12.871Z,88.52
2018-03-02T23:59:40.602Z,88.69
